createdAt,value
2023-03-26T00:03:54.490Z,0.60
2023-03-26T00:13:19.520Z,0.70
2023-03-26T00:22:12.279Z,0.90
2023-03-26T00:30:51.150Z,1.10
2023-03-26T00:39:39.553Z,1.10
2023-03-26T00:43:43.032Z,0.40
2023-03-26T00:47:46.540Z,0.90
2023-03-26T00:51:50.073Z,1.10
2023-03-26T00:55:53.683Z,1.40
2023-03-26T00:59:57.194Z,1.30
2023-03-26T01:04:28.576Z,1.80
2023-03-26T01:08:36.065Z,1.30
2023-03-26T01:12:39.747Z,1.70
2023-03-26T01:16:55.584Z,1.00
2023-03-26T01:21:05.491Z,2.30
2023-03-26T01:25:09.898Z,0.90
2023-03-26T01:29:21.966Z,1.20
2023-03-26T01:33:38.147Z,1.30
2023-03-26T01:37:47.388Z,1.50
2023-03-26T01:41:58.994Z,1.10
2023-03-26T01:46:07.037Z,1.20
2023-03-26T01:50:13.184Z,1.30
2023-03-26T01:54:21.427Z,1.20
2023-03-26T01:58:40.681Z,1.70
2023-03-26T02:02:55.579Z,0.70
2023-03-26T02:07:28.945Z,2.20
2023-03-26T02:11:35.975Z,1.30
2023-03-26T02:15:55.307Z,1.30
2023-03-26T02:19:59.034Z,0.90
2023-03-26T02:24:05.103Z,1.00
2023-03-26T02:28:08.511Z,0.90
2023-03-26T02:32:15.095Z,1.10
2023-03-26T02:36:24.573Z,0.80
2023-03-26T02:40:28.260Z,1.80
2023-03-26T02:44:32.014Z,1.40
2023-03-26T02:48:35.793Z,2.00
2023-03-26T02:52:39.540Z,2.50
2023-03-26T02:56:43.208Z,1.00
2023-03-26T03:00:47.660Z,2.20
2023-03-26T03:04:52.180Z,2.20
2023-03-26T03:08:55.632Z,2.90
2023-03-26T03:12:59.645Z,1.70
2023-03-26T03:17:03.269Z,2.70
2023-03-26T03:21:06.774Z,1.10
2023-03-26T03:25:17.738Z,1.30
2023-03-26T03:29:22.289Z,1.80
2023-03-26T03:33:29.541Z,1.30
2023-03-26T03:37:35.201Z,0.60
2023-03-26T03:41:42.715Z,1.10
2023-03-26T03:50:13.715Z,1.10
2023-03-26T03:54:20.054Z,1.40
2023-03-26T03:58:28.447Z,1.20
2023-03-26T04:02:35.307Z,1.20
2023-03-26T04:06:39.003Z,0.50
2023-03-26T04:10:44.313Z,0.50
2023-03-26T04:14:47.956Z,1.00
2023-03-26T04:18:51.786Z,1.10
2023-03-26T04:22:58.298Z,0.90
2023-03-26T04:27:02.765Z,1.20
2023-03-26T04:31:06.515Z,0.70
2023-03-26T04:35:15.081Z,0.70
2023-03-26T04:39:19.821Z,1.00
2023-03-26T04:43:23.301Z,0.70
2023-03-26T04:47:26.597Z,0.80
2023-03-26T04:51:38.606Z,0.40
2023-03-26T04:55:56.287Z,0.50
2023-03-26T04:59:59.951Z,0.80
2023-03-26T05:04:05.297Z,1.60
2023-03-26T05:08:08.707Z,0.60
2023-03-26T05:12:12.609Z,0.80
2023-03-26T05:16:16.122Z,0.90
2023-03-26T05:20:23.279Z,1.10
2023-03-26T05:24:28.904Z,1.10
2023-03-26T05:28:32.263Z,1.00
2023-03-26T05:32:37.061Z,0.90
2023-03-26T05:36:41.344Z,0.90
2023-03-26T05:40:44.715Z,1.30
2023-03-26T05:44:48.124Z,1.30
2023-03-26T05:48:52.329Z,1.50
2023-03-26T05:52:56.378Z,1.20
2023-03-26T05:57:00.683Z,1.20
2023-03-26T06:01:17.163Z,1.60
2023-03-26T06:05:20.875Z,0.80
2023-03-26T06:09:24.189Z,1.60
2023-03-26T06:13:27.698Z,1.70
2023-03-26T06:17:31.041Z,0.80
2023-03-26T06:21:34.780Z,1.40
2023-03-26T06:25:38.768Z,1.80
2023-03-26T06:29:42.307Z,1.60
2023-03-26T06:33:47.157Z,1.10
2023-03-26T06:37:50.629Z,1.30
2023-03-26T06:41:53.976Z,1.60
2023-03-26T06:45:57.587Z,2.30
2023-03-26T06:50:00.931Z,1.40
2023-03-26T06:54:04.694Z,1.80
2023-03-26T06:58:12.829Z,0.80
2023-03-26T07:02:16.261Z,1.70
2023-03-26T07:06:19.822Z,1.60
2023-03-26T07:10:23.275Z,1.00
2023-03-26T07:14:28.178Z,1.10
2023-03-26T07:18:31.424Z,1.40
2023-03-26T07:22:36.731Z,0.80
2023-03-26T07:27:18.078Z,0.60
2023-03-26T07:31:27.463Z,1.50
2023-03-26T07:36:02.764Z,1.10
2023-03-26T07:44:45.755Z,1.00
2023-03-26T07:49:09.707Z,1.00
2023-03-26T08:02:35.783Z,2.20
2023-03-26T08:07:12.851Z,1.90
2023-03-26T08:16:29.023Z,0.80
2023-03-26T08:20:59.189Z,1.30
2023-03-26T08:30:43.974Z,1.40
2023-03-26T08:35:27.974Z,0.70
2023-03-26T08:50:20.826Z,1.50
2023-03-26T08:54:39.834Z,0.90
2023-03-26T09:04:05.126Z,0.60
2023-03-26T09:14:20.220Z,1.50
2023-03-26T09:28:48.093Z,1.70
2023-03-26T09:33:10.015Z,1.90
2023-03-26T09:42:58.125Z,1.20
2023-03-26T09:48:13.193Z,1.60
2023-03-26T09:52:54.364Z,1.20
2023-03-26T09:57:42.472Z,0.70
2023-03-26T10:07:12.230Z,3.70
2023-03-26T10:17:10.498Z,1.90
2023-03-26T10:41:11.798Z,2.10
2023-03-26T10:46:07.124Z,3.50
2023-03-26T10:55:16.724Z,1.80
2023-03-26T11:04:42.700Z,1.50
2023-03-26T11:09:30.703Z,1.80
2023-03-26T11:23:12.037Z,1.50
2023-03-26T11:28:25.297Z,0.90
2023-03-26T11:52:47.962Z,2.50
2023-03-26T12:06:30.349Z,0.90
2023-03-26T12:34:46.940Z,1.20
2023-03-26T12:39:43.033Z,1.10
2023-03-26T12:44:54.824Z,0.90
2023-03-26T12:48:03.935Z,1.90
2023-03-26T12:52:14.441Z,1.10
2023-03-26T12:56:40.278Z,1.20
2023-03-26T13:01:09.352Z,1.80
2023-03-26T13:05:31.823Z,2.30
2023-03-26T13:09:58.421Z,1.70
2023-03-26T13:14:13.553Z,1.30
2023-03-26T13:18:40.508Z,1.40
2023-03-26T13:22:52.745Z,1.50
2023-03-26T13:31:54.515Z,1.60
2023-03-26T13:36:23.915Z,1.20
2023-03-26T13:41:09.504Z,0.80
2023-03-26T13:45:34.825Z,1.50
2023-03-26T13:49:44.034Z,2.10
2023-03-26T13:54:12.061Z,2.10
2023-03-26T13:58:34.917Z,0.90
2023-03-26T14:02:53.661Z,1.00
2023-03-26T14:07:23.541Z,0.60
2023-03-26T14:25:56.428Z,1.30
2023-03-26T14:30:34.620Z,1.00
2023-03-26T14:35:07.188Z,1.50
2023-03-26T14:39:46.607Z,1.20
2023-03-26T14:44:14.810Z,1.30
2023-03-26T14:48:34.615Z,1.50
2023-03-26T14:52:49.402Z,1.30
2023-03-26T14:57:14.653Z,1.70
2023-03-26T15:01:23.014Z,1.00
2023-03-26T15:05:26.347Z,1.90
2023-03-26T15:09:51.089Z,1.80
2023-03-26T15:14:13.326Z,1.00
2023-03-26T15:18:41.424Z,0.80
2023-03-26T15:23:05.555Z,0.70
2023-03-26T15:27:28.509Z,1.20
2023-03-26T15:31:56.451Z,0.50
2023-03-26T15:36:09.429Z,0.90
2023-03-26T15:40:38.347Z,0.70
2023-03-26T15:44:54.022Z,0.90
2023-03-26T15:49:16.717Z,1.60
2023-03-26T15:53:42.056Z,2.00
2023-03-26T15:57:51.264Z,2.40
2023-03-26T16:02:12.206Z,3.80
2023-03-26T16:06:41.556Z,4.20
2023-03-26T16:11:00.216Z,3.30
2023-03-26T16:15:07.454Z,2.00
2023-03-26T16:19:20.270Z,2.30
2023-03-26T16:23:32.353Z,1.80
2023-03-26T16:27:35.868Z,2.60
2023-03-26T16:32:16.656Z,1.50
2023-03-26T16:36:42.312Z,2.50
2023-03-26T16:41:00.385Z,1.70
2023-03-26T16:45:18.071Z,2.90
2023-03-26T16:49:34.910Z,2.40
2023-03-26T16:54:09.695Z,3.00
2023-03-26T16:58:27.947Z,3.50
2023-03-26T17:02:49.612Z,7.40
2023-03-26T17:07:14.186Z,7.00
2023-03-26T17:11:56.718Z,6.80
2023-03-26T17:16:19.699Z,5.10
2023-03-26T17:20:51.233Z,5.60
2023-03-26T17:25:37.747Z,3.80
2023-03-26T17:29:49.888Z,3.90
2023-03-26T17:33:53.805Z,8.30
2023-03-26T17:37:57.571Z,12.50
2023-03-26T17:42:30.782Z,11.90
2023-03-26T17:46:42.231Z,15.50
2023-03-26T17:51:00.485Z,14.10
2023-03-26T17:55:04.394Z,13.80
2023-03-26T17:59:27.072Z,13.20
2023-03-26T18:03:35.462Z,15.10
2023-03-26T18:08:04.003Z,14.90
2023-03-26T18:12:31.822Z,14.30
2023-03-26T18:36:09.966Z,2.80
2023-03-26T18:40:45.441Z,4.40
2023-03-26T18:44:51.387Z,4.20
2023-03-26T18:48:56.210Z,3.10
2023-03-26T18:53:01.441Z,2.70
2023-03-26T18:57:19.866Z,2.40
2023-03-26T19:01:31.547Z,1.80
2023-03-26T19:05:36.877Z,1.80
2023-03-26T19:09:41.849Z,1.70
2023-03-26T19:13:58.705Z,1.80
2023-03-26T19:18:10.213Z,2.10
2023-03-26T19:22:14.011Z,2.20
2023-03-26T19:26:19.104Z,2.70
2023-03-26T19:30:33.330Z,2.20
2023-03-26T19:34:41.875Z,2.70
2023-03-26T19:38:49.336Z,2.20
2023-03-26T19:42:53.814Z,1.90
2023-03-26T19:47:08.431Z,3.10
2023-03-26T19:51:22.312Z,3.30
2023-03-26T19:55:27.290Z,1.90
2023-03-26T19:59:31.328Z,2.70
2023-03-26T20:03:41.920Z,3.10
2023-03-26T20:07:56.570Z,2.90
2023-03-26T20:12:00.735Z,2.10
2023-03-26T20:16:16.229Z,2.40
2023-03-26T20:20:41.293Z,2.40
2023-03-26T20:24:47.221Z,2.30
2023-03-26T20:28:53.712Z,1.90
2023-03-26T20:33:11.842Z,2.70
2023-03-26T20:37:17.626Z,3.00
2023-03-26T20:41:23.349Z,3.90
2023-03-26T20:45:26.642Z,4.90
2023-03-26T20:49:32.460Z,4.60
2023-03-26T20:53:35.801Z,5.30
2023-03-26T20:57:39.243Z,5.80
2023-03-26T21:01:43.396Z,5.60
2023-03-26T21:05:48.802Z,7.70
2023-03-26T21:09:52.594Z,6.40
2023-03-26T21:14:19.473Z,7.40
2023-03-26T21:18:23.070Z,6.90
2023-03-26T21:27:36.861Z,6.50
2023-03-26T22:00:16.902Z,6.40
2023-03-26T22:05:16.835Z,7.20
2023-03-26T22:23:43.274Z,8.40
2023-03-26T22:28:13.044Z,8.30
2023-03-26T22:47:07.149Z,7.70
2023-03-26T22:57:02.129Z,6.60
2023-03-26T23:01:22.438Z,5.30
2023-03-26T23:14:37.255Z,7.50
2023-03-26T23:32:23.468Z,7.20
2023-03-26T23:51:17.450Z,5.90
